Time;durP1;ratioP1;P1;durP2;ratioP2;P2;SDS_P1;SDS_P2;PMS_P1;PMS_P2;Temp;Humidity;BMP_temperature;BMP_pressure;BME280_temperature;BME280_humidity;BME280_pressure;Samples;Min_cycle;Max_cycle;Signal;HPM_P1;HPM_P2
2023/09/22 00:00:33;;;;;;;5.60;1.30;;;13.50;99.90;;;;;;5052805;28;20317;-68
2023/09/22 00:02:59;;;;;;;4.07;2.00;;;13.50;99.90;;;;;;5052823;28;20277;-69
2023/09/22 00:05:24;;;;;;;4.40;1.50;;;13.50;99.90;;;;;;5052542;28;20207;-68
2023/09/22 00:07:50;;;;;;;4.97;2.17;;;13.50;99.90;;;;;;5051959;28;20245;-68
2023/09/22 00:10:15;;;;;;;4.77;1.73;;;13.50;99.90;;;;;;5051590;28;20198;-68
2023/09/22 00:12:41;;;;;;;3.80;1.67;;;13.50;99.90;;;;;;5045248;28;20187;-69
2023/09/22 00:15:08;;;;;;;6.20;1.70;;;13.60;99.90;;;;;;5052288;28;20222;-68
2023/09/22 00:17:35;;;;;;;3.67;1.40;;;13.70;99.90;;;;;;5052145;28;20229;-69
2023/09/22 00:20:01;;;;;;;6.70;1.87;;;13.70;99.90;;;;;;5051914;28;20179;-69
2023/09/22 00:22:27;;;;;;;4.53;1.90;;;13.80;99.90;;;;;;5052437;28;20206;-69
2023/09/22 00:24:53;;;;;;;4.43;1.70;;;13.80;99.90;;;;;;5052373;28;20226;-68
2023/09/22 00:27:19;;;;;;;3.33;1.50;;;13.80;99.90;;;;;;5052172;28;20191;-69
2023/09/22 00:29:44;;;;;;;4.67;1.73;;;13.90;99.90;;;;;;5043282;28;20179;-68
2023/09/22 00:32:11;;;;;;;6.93;1.50;;;13.90;99.90;;;;;;5052146;28;20332;-68
2023/09/22 00:34:38;;;;;;;2.40;1.30;;;13.90;99.90;;;;;;5052018;28;20658;-69
2023/09/22 00:37:03;;;;;;;6.57;2.27;;;13.80;99.90;;;;;;5051968;28;20202;-68
2023/09/22 00:39:29;;;;;;;2.27;1.03;;;13.80;99.90;;;;;;5051239;28;20357;-69
2023/09/22 00:41:55;;;;;;;2.27;1.10;;;13.80;99.90;;;;;;5052045;28;20270;-69
2023/09/22 00:44:21;;;;;;;1.97;1.10;;;13.90;99.90;;;;;;5051876;28;20175;-69
2023/09/22 00:46:46;;;;;;;2.70;0.90;;;13.90;99.90;;;;;;5046821;28;20203;-69
2023/09/22 00:49:13;;;;;;;5.03;1.70;;;13.90;99.90;;;;;;5046851;28;20455;-68
2023/09/22 00:51:39;;;;;;;3.77;1.20;;;13.90;99.90;;;;;;5051817;28;20180;-68
2023/09/22 00:54:05;;;;;;;2.70;0.90;;;13.90;99.90;;;;;;5051993;28;20550;-68
2023/09/22 00:56:31;;;;;;;5.50;0.80;;;13.90;99.90;;;;;;5051507;28;20211;-68
2023/09/22 00:58:57;;;;;;;2.07;0.73;;;13.90;99.90;;;;;;5051046;28;20179;-68
2023/09/22 01:01:26;;;;;;;3.07;0.90;;;13.90;99.90;;;;;;5051155;28;20270;-69
2023/09/22 01:03:52;;;;;;;6.90;1.13;;;13.90;99.90;;;;;;5051562;28;20571;-68
2023/09/22 01:06:18;;;;;;;2.47;0.90;;;13.90;99.90;;;;;;5042097;28;20755;-68
2023/09/22 01:08:44;;;;;;;2.00;0.77;;;13.90;99.90;;;;;;5043863;28;20261;-68
2023/09/22 01:11:10;;;;;;;2.70;0.67;;;13.90;99.90;;;;;;5051562;28;20187;-68
2023/09/22 01:13:35;;;;;;;2.37;0.80;;;13.80;99.90;;;;;;5035115;28;20195;-68
2023/09/22 01:16:02;;;;;;;3.17;0.90;;;13.80;99.90;;;;;;5051349;28;20720;-69
2023/09/22 01:18:29;;;;;;;6.23;0.90;;;13.80;99.90;;;;;;5050488;28;20202;-69
2023/09/22 01:20:58;;;;;;;1.63;1.17;;;13.70;99.90;;;;;;5051406;28;20643;-68
2023/09/22 01:23:23;;;;;;;1.10;0.80;;;13.70;99.90;;;;;;5042899;28;20176;-68
2023/09/22 01:25:50;;;;;;;1.07;0.70;;;13.80;99.90;;;;;;5051244;28;20634;-69
2023/09/22 01:28:16;;;;;;;2.87;1.13;;;13.70;99.90;;;;;;5050347;28;20186;-68
2023/09/22 01:30:42;;;;;;;4.07;1.10;;;13.70;99.90;;;;;;5049729;28;20183;-68
2023/09/22 01:33:09;;;;;;;3.20;0.90;;;13.70;99.90;;;;;;5051049;28;20190;-69
2023/09/22 01:35:35;;;;;;;2.63;0.83;;;13.70;99.90;;;;;;5047375;28;20588;-68
2023/09/22 01:38:18;;;;;;;3.77;0.83;;;13.70;99.90;;;;;;5045678;28;20206;-68
2023/09/22 01:40:43;;;;;;;2.37;1.13;;;13.70;99.90;;;;;;5046579;28;20183;-69
2023/09/22 01:43:10;;;;;;;4.70;1.00;;;13.60;99.90;;;;;;5047309;28;20907;-69
2023/09/22 01:45:36;;;;;;;3.17;0.80;;;13.60;99.90;;;;;;5050468;28;20218;-68
2023/09/22 01:48:02;;;;;;;1.87;0.80;;;13.50;99.90;;;;;;5050193;28;20183;-68
2023/09/22 01:50:28;;;;;;;1.87;0.77;;;13.50;99.90;;;;;;5050628;28;20183;-68
2023/09/22 01:52:54;;;;;;;2.40;0.73;;;13.50;99.90;;;;;;5050849;28;20187;-68
2023/09/22 01:55:20;;;;;;;5.67;0.80;;;13.30;99.90;;;;;;5050441;28;20229;-69
2023/09/22 01:57:49;;;;;;;3.47;0.90;;;13.30;99.90;;;;;;5050537;28;20179;-68
2023/09/22 02:00:18;;;;;;;13.13;1.40;;;13.20;99.90;;;;;;5042045;28;20186;-69
2023/09/22 02:02:46;;;;;;;3.53;0.93;;;13.20;99.90;;;;;;5050555;28;20167;-69
2023/09/22 02:05:14;;;;;;;2.20;0.80;;;13.10;99.90;;;;;;5050323;28;20237;-68
2023/09/22 02:07:42;;;;;;;3.27;1.03;;;13.00;99.90;;;;;;5050450;28;20183;-69
2023/09/22 02:10:09;;;;;;;5.93;1.17;;;13.00;99.90;;;;;;5050049;28;20177;-68
2023/09/22 02:12:36;;;;;;;4.40;0.90;;;12.90;99.90;;;;;;5050244;28;20225;-69
2023/09/22 02:15:02;;;;;;;2.77;0.97;;;12.80;99.90;;;;;;5049768;28;20602;-68
2023/09/22 02:17:28;;;;;;;3.50;1.10;;;12.80;99.90;;;;;;5050038;28;20187;-68
2023/09/22 02:19:55;;;;;;;3.83;1.30;;;12.70;99.90;;;;;;5049807;28;20266;-69
2023/09/22 02:22:20;;;;;;;3.43;1.07;;;12.70;99.90;;;;;;5050117;28;20266;-69
2023/09/22 02:24:46;;;;;;;1.50;0.90;;;12.60;99.90;;;;;;5049419;28;20255;-68
2023/09/22 02:27:11;;;;;;;10.27;1.20;;;12.60;99.90;;;;;;5050119;28;20479;-68
2023/09/22 02:29:37;;;;;;;4.97;0.90;;;12.50;99.90;;;;;;5049590;28;20273;-69
2023/09/22 02:32:03;;;;;;;2.17;1.00;;;12.40;99.90;;;;;;5050181;28;20218;-68
2023/09/22 02:34:28;;;;;;;5.47;1.20;;;12.30;99.90;;;;;;5050193;28;20186;-68
2023/09/22 02:36:55;;;;;;;4.40;1.10;;;12.30;99.90;;;;;;5044300;28;20939;-69
2023/09/22 02:39:21;;;;;;;15.23;1.83;;;12.20;99.90;;;;;;5047084;28;20239;-68
2023/09/22 02:41:47;;;;;;;2.50;1.00;;;12.10;99.90;;;;;;5050099;28;20597;-69
2023/09/22 02:44:13;;;;;;;4.00;1.10;;;12.00;99.90;;;;;;5049970;28;20179;-68
2023/09/22 02:46:39;;;;;;;3.27;0.90;;;12.00;99.90;;;;;;5049987;28;20203;-69
2023/09/22 02:49:05;;;;;;;3.20;0.80;;;12.00;99.90;;;;;;5049373;28;20222;-68
2023/09/22 02:51:30;;;;;;;2.23;0.87;;;11.90;99.90;;;;;;5065259;28;20289;-69
2023/09/22 02:53:56;;;;;;;8.90;0.93;;;11.90;99.90;;;;;;5050062;28;20287;-68
2023/09/22 02:56:22;;;;;;;4.07;0.90;;;11.80;99.90;;;;;;5049591;28;20222;-69
2023/09/22 02:58:48;;;;;;;4.30;0.80;;;11.80;99.90;;;;;;5049287;28;20190;-68
2023/09/22 03:01:14;;;;;;;2.43;0.90;;;11.80;99.90;;;;;;5049797;28;20237;-68
2023/09/22 03:03:43;;;;;;;2.80;1.20;;;11.70;99.90;;;;;;5049927;28;20175;-68
2023/09/22 03:06:12;;;;;;;8.70;0.90;;;11.70;99.90;;;;;;5049841;28;20286;-68
2023/09/22 03:08:39;;;;;;;3.03;1.30;;;11.60;99.90;;;;;;5032220;28;20249;-69
2023/09/22 03:11:05;;;;;;;12.13;2.07;;;11.60;99.90;;;;;;5042637;28;20670;-68
2023/09/22 03:13:31;;;;;;;4.77;1.13;;;11.50;99.90;;;;;;5048808;28;20191;-68
2023/09/22 03:15:57;;;;;;;3.70;0.80;;;11.50;99.90;;;;;;5049484;28;20241;-68
2023/09/22 03:18:23;;;;;;;7.93;1.20;;;11.40;99.90;;;;;;5048853;28;20195;-69
2023/09/22 03:20:49;;;;;;;5.80;1.20;;;11.40;99.90;;;;;;5049788;28;20555;-68
2023/09/22 03:23:16;;;;;;;2.53;1.20;;;11.40;99.90;;;;;;5049474;28;20206;-68
2023/09/22 03:25:44;;;;;;;3.73;1.10;;;11.30;99.90;;;;;;5052107;28;20198;-68
2023/09/22 03:28:10;;;;;;;4.53;0.90;;;11.30;99.90;;;;;;5052990;28;20204;-68
2023/09/22 03:30:35;;;;;;;5.87;1.50;;;11.20;99.90;;;;;;5044874;28;20685;-68
2023/09/22 03:33:01;;;;;;;2.17;1.10;;;11.20;99.90;;;;;;5053421;28;20186;-68
2023/09/22 03:35:27;;;;;;;9.70;1.00;;;11.20;99.90;;;;;;5053036;28;20215;-68
2023/09/22 03:37:54;;;;;;;7.37;1.03;;;11.20;99.90;;;;;;5044431;28;20667;-69
2023/09/22 03:40:31;;;;;;;3.47;0.90;;;11.10;99.90;;;;;;5053108;28;20179;-68
2023/09/22 03:42:58;;;;;;;4.07;1.10;;;11.10;99.90;;;;;;5053333;28;20193;-69
2023/09/22 03:45:24;;;;;;;3.77;1.20;;;11.00;99.90;;;;;;5052691;28;20203;-69
2023/09/22 03:47:49;;;;;;;3.93;1.60;;;11.00;99.90;;;;;;5052504;28;20677;-69
2023/09/22 03:50:15;;;;;;;5.10;1.40;;;11.00;99.90;;;;;;5052685;28;20278;-69
2023/09/22 03:52:42;;;;;;;4.37;1.30;;;11.00;99.90;;;;;;5053005;28;20183;-69
2023/09/22 03:55:09;;;;;;;4.53;1.93;;;11.00;99.90;;;;;;5052897;28;20286;-69
2023/09/22 03:57:34;;;;;;;5.40;2.20;;;11.00;99.90;;;;;;5044425;28;20190;-68
2023/09/22 04:00:00;;;;;;;8.07;2.50;;;11.00;99.90;;;;;;5052097;28;20178;-69
2023/09/22 04:02:27;;;;;;;6.57;2.40;;;11.00;99.90;;;;;;5052784;28;20187;-69
2023/09/22 04:04:54;;;;;;;4.17;1.20;;;11.00;99.90;;;;;;5052799;28;20179;-68
2023/09/22 04:07:19;;;;;;;3.03;1.33;;;11.00;99.90;;;;;;5043365;28;20229;-68
2023/09/22 04:09:45;;;;;;;2.77;1.47;;;11.00;99.90;;;;;;5039525;28;20179;-68
2023/09/22 04:12:11;;;;;;;5.77;1.20;;;10.90;99.90;;;;;;5049008;28;20548;-68
2023/09/22 04:14:37;;;;;;;3.43;1.50;;;11.00;99.90;;;;;;5052382;28;20278;-68
2023/09/22 04:17:03;;;;;;;3.10;1.37;;;11.00;99.90;;;;;;5052461;28;20297;-68
2023/09/22 04:19:33;;;;;;;3.40;1.60;;;10.90;99.90;;;;;;5051556;28;20217;-68
2023/09/22 04:22:00;;;;;;;3.80;1.27;;;10.90;99.90;;;;;;5052584;28;20182;-68
2023/09/22 04:24:31;;;;;;;5.50;1.17;;;10.90;99.90;;;;;;5052348;28;20267;-68
2023/09/22 04:27:00;;;;;;;6.07;1.50;;;10.90;99.90;;;;;;5052388;28;20291;-68
2023/09/22 04:29:26;;;;;;;4.43;1.20;;;10.90;99.90;;;;;;5051485;28;20190;-69
2023/09/22 04:31:52;;;;;;;5.77;1.60;;;10.90;99.90;;;;;;5052316;28;20183;-69
2023/09/22 04:34:19;;;;;;;2.60;1.10;;;10.90;99.90;;;;;;5043853;28;20194;-68
2023/09/22 04:36:45;;;;;;;8.20;3.67;;;10.90;99.90;;;;;;5051399;28;20674;-69
2023/09/22 04:39:10;;;;;;;6.30;2.57;;;10.80;99.90;;;;;;5051555;28;20213;-69
2023/09/22 04:41:36;;;;;;;7.10;1.97;;;10.80;99.90;;;;;;5051905;28;20179;-69
2023/09/22 04:44:02;;;;;;;2.50;1.20;;;10.80;99.90;;;;;;5043787;28;20190;-68
2023/09/22 04:46:28;;;;;;;2.60;1.30;;;10.80;99.90;;;;;;5051739;28;20206;-69
2023/09/22 04:48:55;;;;;;;5.40;1.20;;;10.80;99.90;;;;;;5049116;28;20179;-69
2023/09/22 04:51:21;;;;;;;5.50;1.33;;;10.80;99.90;;;;;;5049594;28;20582;-69
2023/09/22 04:53:47;;;;;;;2.27;1.37;;;10.80;99.90;;;;;;5052017;28;20187;-69
2023/09/22 04:56:12;;;;;;;3.50;2.03;;;10.80;99.90;;;;;;5051894;28;20202;-69
2023/09/22 04:58:38;;;;;;;8.77;4.13;;;10.90;99.90;;;;;;5051280;28;20183;-69
2023/09/22 05:01:03;;;;;;;7.50;3.87;;;10.80;99.90;;;;;;5051687;28;20196;-69
2023/09/22 05:03:29;;;;;;;14.90;4.33;;;10.90;99.90;;;;;;5051456;28;20171;-69
2023/09/22 05:06:02;;;;;;;8.50;3.00;;;10.90;99.90;;;;;;5051640;28;20203;-69
2023/09/22 05:08:28;;;;;;;9.70;2.90;;;10.90;99.90;;;;;;5050814;28;20183;-69
2023/09/22 05:10:53;;;;;;;5.27;1.40;;;10.90;99.90;;;;;;5038076;28;20306;-69
2023/09/22 05:13:19;;;;;;;1.80;1.23;;;10.80;99.90;;;;;;5048701;28;20183;-68
2023/09/22 05:15:45;;;;;;;2.07;1.20;;;10.90;99.90;;;;;;5042977;28;20218;-68
2023/09/22 05:18:13;;;;;;;3.73;1.60;;;10.90;99.90;;;;;;5050613;28;20213;-69
2023/09/22 05:20:42;;;;;;;5.00;1.40;;;11.00;99.90;;;;;;5039614;28;20183;-68
2023/09/22 05:23:08;;;;;;;3.97;1.57;;;11.00;99.90;;;;;;5039876;28;20176;-69
2023/09/22 05:25:43;;;;;;;6.27;2.73;;;11.00;99.90;;;;;;5050377;28;20260;-68
2023/09/22 05:28:10;;;;;;;4.73;1.80;;;11.10;99.90;;;;;;5050612;28;20265;-68
2023/09/22 05:30:40;;;;;;;9.03;2.70;;;11.10;99.90;;;;;;5039703;28;20198;-69
2023/09/22 05:33:07;;;;;;;5.40;2.63;;;11.10;99.90;;;;;;5038574;28;20566;-68
2023/09/22 05:35:35;;;;;;;22.33;7.70;;;11.20;99.90;;;;;;5038873;28;20218;-69
2023/09/22 05:38:02;;;;;;;13.53;5.60;;;11.20;99.90;;;;;;5036043;28;20626;-69
2023/09/22 05:40:28;;;;;;;10.43;3.60;;;11.20;99.90;;;;;;5033810;28;21119;-68
2023/09/22 05:42:53;;;;;;;5.60;2.10;;;11.20;99.90;;;;;;5050283;28;20266;-69
2023/09/22 05:45:19;;;;;;;2.97;1.80;;;11.10;99.90;;;;;;5035660;28;20589;-69
2023/09/22 05:47:45;;;;;;;5.23;1.60;;;11.10;99.90;;;;;;5024876;28;20202;-69
2023/09/22 05:50:11;;;;;;;4.97;1.40;;;11.10;99.90;;;;;;5025016;28;20222;-68
2023/09/22 05:52:39;;;;;;;2.23;1.50;;;11.10;99.90;;;;;;5026826;28;20192;-69
2023/09/22 05:55:06;;;;;;;6.03;1.90;;;11.20;99.90;;;;;;5044268;28;20277;-69
2023/09/22 05:57:33;;;;;;;10.50;1.50;;;11.10;99.90;;;;;;5042959;28;20183;-69
2023/09/22 05:59:59;;;;;;;3.33;1.60;;;11.10;99.90;;;;;;5039591;28;20233;-69
2023/09/22 06:02:25;;;;;;;7.67;3.37;;;11.20;99.90;;;;;;5043029;28;20191;-69
2023/09/22 06:04:55;;;;;;;12.77;5.50;;;11.20;99.90;;;;;;5039415;28;20175;-69
2023/09/22 06:07:22;;;;;;;6.23;2.57;;;11.40;99.90;;;;;;5017282;28;20601;-69
2023/09/22 06:09:48;;;;;;;6.07;2.40;;;11.40;99.90;;;;;;5036452;28;20180;-70
2023/09/22 06:12:13;;;;;;;9.90;2.53;;;11.50;99.90;;;;;;5029826;28;20685;-69
2023/09/22 06:14:39;;;;;;;10.87;4.10;;;11.70;99.90;;;;;;5021752;28;20274;-69
2023/09/22 06:17:07;;;;;;;21.43;5.17;;;11.80;99.90;;;;;;5038121;28;20235;-69
2023/09/22 06:19:32;;;;;;;8.17;3.13;;;12.00;99.90;;;;;;5029082;28;20306;-69
2023/09/22 06:21:59;;;;;;;4.43;2.53;;;12.10;99.90;;;;;;5029845;28;20703;-69
2023/09/22 06:24:25;;;;;;;8.70;2.60;;;12.20;99.90;;;;;;5029824;28;20678;-69
2023/09/22 06:26:52;;;;;;;10.43;4.80;;;12.20;99.90;;;;;;5035061;28;20215;-69
2023/09/22 06:29:18;;;;;;;9.17;3.67;;;12.30;99.90;;;;;;5031842;28;20184;-69
2023/09/22 06:31:43;;;;;;;7.43;3.60;;;12.30;99.90;;;;;;5029660;28;20209;-69
2023/09/22 06:34:09;;;;;;;6.63;2.90;;;12.30;99.90;;;;;;5029781;28;20184;-69
2023/09/22 06:36:35;;;;;;;11.43;3.80;;;12.40;99.90;;;;;;5029445;28;20238;-69
2023/09/22 06:39:07;;;;;;;13.10;3.97;;;12.40;99.90;;;;;;5037320;28;20178;-69
2023/09/22 06:41:34;;;;;;;8.27;3.30;;;12.50;99.90;;;;;;5040209;28;20171;-69
2023/09/22 06:44:02;;;;;;;7.97;2.70;;;12.60;99.90;;;;;;5035188;28;20176;-69
2023/09/22 06:46:28;;;;;;;4.47;2.20;;;12.60;99.90;;;;;;5037521;28;20202;-69
2023/09/22 06:48:55;;;;;;;6.90;2.33;;;12.70;99.90;;;;;;5028906;28;20183;-69
2023/09/22 06:51:21;;;;;;;9.80;2.83;;;12.80;99.90;;;;;;5029301;28;20669;-69
2023/09/22 06:53:47;;;;;;;7.80;2.03;;;12.90;99.90;;;;;;5029751;28;20192;-69
2023/09/22 06:56:13;;;;;;;5.63;2.67;;;13.20;99.90;;;;;;5029386;28;20226;-69
2023/09/22 06:58:42;;;;;;;6.50;1.93;;;13.50;99.90;;;;;;5028668;28;20267;-69
2023/09/22 07:01:12;;;;;;;9.30;2.03;;;13.80;99.90;;;;;;5032903;28;20187;-69
2023/09/22 07:03:38;;;;;;;10.17;2.80;;;14.00;99.90;;;;;;5041532;28;20182;-69
2023/09/22 07:06:10;;;;;;;17.83;5.77;;;14.20;99.90;;;;;;5033460;28;20203;-68
2023/09/22 07:08:36;;;;;;;6.33;2.70;;;14.30;99.90;;;;;;5032691;28;20273;-68
2023/09/22 07:11:03;;;;;;;6.47;2.37;;;14.40;99.90;;;;;;5033534;28;20652;-68
2023/09/22 07:13:29;;;;;;;6.03;2.43;;;14.50;99.90;;;;;;5033292;28;20183;-68
2023/09/22 07:15:56;;;;;;;4.53;2.10;;;14.40;99.90;;;;;;5038470;28;20308;-68
2023/09/22 07:18:22;;;;;;;9.77;1.53;;;14.30;99.90;;;;;;5034788;28;20278;-68
2023/09/22 07:20:48;;;;;;;4.80;1.30;;;14.20;99.90;;;;;;5037874;28;20557;-68
2023/09/22 07:23:14;;;;;;;5.00;1.97;;;14.20;99.90;;;;;;5044532;28;20228;-69
2023/09/22 07:25:40;;;;;;;3.90;1.47;;;14.10;99.90;;;;;;5023946;28;20209;-69
2023/09/22 07:28:07;;;;;;;4.03;1.43;;;14.20;99.90;;;;;;5046770;28;20270;-69
2023/09/22 07:30:34;;;;;;;2.20;1.27;;;14.40;99.90;;;;;;5050240;28;20190;-70
2023/09/22 07:33:00;;;;;;;4.23;1.50;;;14.60;99.90;;;;;;5037564;28;20181;-70
2023/09/22 07:35:26;;;;;;;3.70;1.60;;;14.80;99.90;;;;;;5042608;28;20242;-70
2023/09/22 07:37:52;;;;;;;5.60;1.90;;;14.80;99.90;;;;;;5037375;28;20433;-70
2023/09/22 07:40:17;;;;;;;3.53;1.50;;;14.80;99.90;;;;;;5044270;28;20179;-69
2023/09/22 07:42:44;;;;;;;5.90;1.57;;;14.90;99.90;;;;;;5041209;28;20555;-70
2023/09/22 07:45:11;;;;;;;3.00;1.53;;;14.80;99.90;;;;;;5041078;28;20199;-70
2023/09/22 07:47:37;;;;;;;7.57;1.57;;;14.80;99.90;;;;;;5040963;28;20628;-69
2023/09/22 07:50:04;;;;;;;3.40;1.60;;;15.00;99.90;;;;;;5040448;28;20310;-69
2023/09/22 07:52:30;;;;;;;6.30;2.50;;;15.20;99.90;;;;;;5051309;28;20618;-70
2023/09/22 07:54:57;;;;;;;3.27;1.73;;;15.30;99.90;;;;;;5046979;28;20184;-69
2023/09/22 07:57:23;;;;;;;3.23;1.53;;;15.40;99.90;;;;;;5032326;28;20176;-70
2023/09/22 07:59:48;;;;;;;7.63;5.23;;;15.60;99.90;;;;;;5031799;28;20180;-70
2023/09/22 08:02:17;;;;;;;3.40;1.60;;;15.80;99.90;;;;;;5032398;28;20203;-69
2023/09/22 08:04:43;;;;;;;11.40;1.87;;;15.80;99.90;;;;;;5022973;28;20176;-68
2023/09/22 08:07:08;;;;;;;3.47;1.70;;;15.80;99.90;;;;;;5047833;28;20230;-68
2023/09/22 08:09:34;;;;;;;3.50;1.10;;;15.80;99.90;;;;;;5048740;28;20277;-69
2023/09/22 08:11:59;;;;;;;1.77;1.10;;;15.80;99.90;;;;;;5045309;28;20187;-69
2023/09/22 08:14:26;;;;;;;7.23;1.40;;;15.70;99.90;;;;;;5051978;28;20187;-69
2023/09/22 08:16:51;;;;;;;1.67;1.20;;;15.70;99.90;;;;;;5051827;28;20211;-69
2023/09/22 08:19:17;;;;;;;4.33;1.20;;;15.50;99.90;;;;;;5050849;28;20567;-69
2023/09/22 08:21:44;;;;;;;4.13;1.40;;;15.60;99.90;;;;;;5051829;28;20186;-69
2023/09/22 08:24:11;;;;;;;2.20;1.30;;;15.70;99.90;;;;;;5042575;28;20175;-68
2023/09/22 08:26:36;;;;;;;2.03;1.00;;;15.90;99.90;;;;;;5051506;28;20245;-68
2023/09/22 08:29:04;;;;;;;3.80;1.27;;;16.10;99.90;;;;;;5050976;28;20203;-68
2023/09/22 08:31:30;;;;;;;1.30;0.80;;;16.10;99.90;;;;;;5051540;28;20278;-70
2023/09/22 08:33:56;;;;;;;2.03;1.10;;;16.40;99.90;;;;;;5046214;28;20190;-69
2023/09/22 08:36:22;;;;;;;1.27;1.10;;;16.70;99.90;;;;;;5047915;28;20569;-68
2023/09/22 08:38:47;;;;;;;3.70;1.20;;;17.20;99.90;;;;;;5026193;28;20181;-70
2023/09/22 08:41:13;;;;;;;2.37;1.07;;;17.50;99.90;;;;;;5044013;28;20214;-68
2023/09/22 08:43:40;;;;;;;1.10;0.80;;;17.40;99.90;;;;;;5050104;28;20183;-68
2023/09/22 08:46:06;;;;;;;2.73;1.00;;;17.30;99.90;;;;;;5051203;28;20211;-70
2023/09/22 08:48:31;;;;;;;2.33;1.00;;;17.30;99.90;;;;;;5050394;28;20677;-70
2023/09/22 08:50:57;;;;;;;3.67;1.00;;;17.60;99.90;;;;;;5051279;28;20195;-68
2023/09/22 08:53:23;;;;;;;13.77;1.50;;;18.00;99.90;;;;;;5051290;28;20707;-71
2023/09/22 08:55:52;;;;;;;2.43;0.90;;;18.00;99.90;;;;;;5051051;28;20213;-70
2023/09/22 08:58:18;;;;;;;3.57;0.87;;;18.00;99.90;;;;;;5050220;28;20194;-70
2023/09/22 09:00:48;;;;;;;2.23;0.80;;;18.10;99.90;;;;;;5050949;28;20684;-69
2023/09/22 09:03:14;;;;;;;14.00;3.77;;;18.50;99.90;;;;;;5051423;28;20195;-70
2023/09/22 09:05:40;;;;;;;2.30;0.77;;;18.70;99.90;;;;;;5050694;28;20206;-72
2023/09/22 09:08:16;;;;;;;2.93;0.60;;;18.80;99.90;;;;;;5042037;28;20185;-71
2023/09/22 09:10:45;;;;;;;2.30;0.83;;;19.50;99.90;;;;;;5034956;28;20510;-70
2023/09/22 09:13:23;;;;;;;2.70;0.70;;;20.30;99.90;;;;;;5042884;28;20225;-70
2023/09/22 09:15:54;;;;;;;2.17;0.50;;;20.20;99.90;;;;;;5050670;28;20552;-71
2023/09/22 09:18:24;;;;;;;2.57;0.80;;;20.00;99.90;;;;;;5041730;28;20561;-70
2023/09/22 09:21:10;;;;;;;1.27;0.60;;;19.00;99.90;;;;;;5040932;28;20271;-71
2023/09/22 09:23:37;;;;;;;3.93;0.97;;;18.60;99.90;;;;;;5041446;28;20234;-71
2023/09/22 09:26:03;;;;;;;2.83;0.97;;;17.70;99.90;;;;;;5035991;28;20210;-69
2023/09/22 09:28:29;;;;;;;1.73;0.70;;;17.40;99.90;;;;;;5030060;28;20647;-71
2023/09/22 09:30:59;;;;;;;1.40;0.70;;;17.40;99.90;;;;;;5025913;28;20214;-71
2023/09/22 09:33:31;;;;;;;2.60;1.00;;;18.10;99.90;;;;;;5025198;28;20218;-71
2023/09/22 09:35:57;;;;;;;2.10;0.50;;;19.00;99.90;;;;;;5021422;28;20294;-72
2023/09/22 09:38:26;;;;;;;2.10;0.70;;;19.20;99.90;;;;;;5024602;28;20765;-71
2023/09/22 09:40:52;;;;;;;4.67;0.80;;;20.00;99.90;;;;;;5025939;28;20226;-72
2023/09/22 09:43:18;;;;;;;3.37;0.87;;;20.90;99.90;;;;;;5024119;28;20179;-71
2023/09/22 09:45:45;;;;;;;1.37;0.50;;;21.60;99.90;;;;;;5024349;28;20286;-71
2023/09/22 09:48:16;;;;;;;5.00;0.57;;;21.90;99.90;;;;;;5024497;28;20234;-71
2023/09/22 09:50:53;;;;;;;2.23;0.60;;;22.10;99.90;;;;;;5024963;28;20183;-70
2023/09/22 09:53:45;;;;;;;0.80;0.50;;;22.30;99.90;;;;;;5024951;28;20238;-72
2023/09/22 09:56:15;;;;;;;1.80;0.50;;;22.60;99.90;;;;;;5024340;28;20514;-72
2023/09/22 09:58:41;;;;;;;2.73;0.70;;;23.40;99.90;;;;;;5024868;28;20561;-71
2023/09/22 10:01:07;;;;;;;3.93;0.80;;;23.30;99.90;;;;;;5025263;28;20184;-71
2023/09/22 10:03:36;;;;;;;2.43;1.00;;;22.40;99.90;;;;;;5023337;28;20196;-71
2023/09/22 10:06:04;;;;;;;3.00;0.70;;;21.60;99.90;;;;;;5024258;28;20207;-70
2023/09/22 10:08:30;;;;;;;6.70;1.07;;;21.20;99.90;;;;;;5026038;28;20195;-72
2023/09/22 10:11:05;;;;;;;2.43;0.70;;;20.40;99.90;;;;;;5025783;28;20192;-71
2023/09/22 10:13:33;;;;;;;1.97;1.00;;;20.00;99.90;;;;;;5026133;28;20187;-70
2023/09/22 10:16:04;;;;;;;1.83;0.63;;;20.00;99.90;;;;;;5029575;28;20239;-71
2023/09/22 10:18:46;;;;;;;3.77;0.67;;;20.70;99.90;;;;;;5028071;28;20194;-71
2023/09/22 10:21:30;;;;;;;2.33;0.50;;;20.60;99.90;;;;;;5031017;28;20266;-70
2023/09/22 10:24:15;;;;;;;2.30;0.63;;;20.00;99.90;;;;;;5035109;28;20197;-71
2023/09/22 10:26:56;;;;;;;1.37;0.67;;;19.10;99.90;;;;;;5029387;28;20210;-70
2023/09/22 10:29:36;;;;;;;1.57;0.67;;;18.70;99.90;;;;;;5037570;28;20262;-71
2023/09/22 10:32:26;;;;;;;3.20;0.70;;;18.50;99.90;;;;;;5043378;28;20724;-70
2023/09/22 10:35:05;;;;;;;2.03;0.60;;;19.20;99.90;;;;;;5033720;28;20175;-70
2023/09/22 10:37:35;;;;;;;7.57;0.80;;;19.60;99.90;;;;;;5030985;28;20701;-70
2023/09/22 10:40:09;;;;;;;1.80;0.80;;;20.00;99.90;;;;;;5029288;28;20171;-71
2023/09/22 10:42:45;;;;;;;2.30;0.50;;;20.40;99.90;;;;;;5048602;28;20203;-70
2023/09/22 10:45:13;;;;;;;2.10;0.50;;;20.20;99.90;;;;;;5049179;28;20187;-70
2023/09/22 10:47:46;;;;;;;3.43;0.77;;;20.00;99.90;;;;;;5048803;28;20198;-72
2023/09/22 10:50:32;;;;;;;2.20;0.70;;;20.30;99.90;;;;;;5033422;28;20181;-71
2023/09/22 10:52:58;;;;;;;3.43;0.77;;;20.20;99.90;;;;;;5036897;28;20727;-70
2023/09/22 10:55:37;;;;;;;1.67;0.70;;;19.60;99.90;;;;;;5046758;28;20202;-70
2023/09/22 10:58:05;;;;;;;1.03;0.43;;;19.60;99.90;;;;;;5028859;28;20174;-71
2023/09/22 11:00:42;;;;;;;4.47;0.60;;;19.60;99.90;;;;;;5028743;28;20237;-69
2023/09/22 11:03:14;;;;;;;4.00;0.90;;;19.70;99.90;;;;;;5029439;28;20190;-69
2023/09/22 11:05:42;;;;;;;3.17;1.00;;;19.80;99.90;;;;;;5032316;28;20236;-69
2023/09/22 11:08:15;;;;;;;3.10;0.70;;;19.70;99.90;;;;;;5033599;28;20561;-70
2023/09/22 11:10:43;;;;;;;2.87;0.60;;;19.40;99.90;;;;;;5037432;28;20180;-70
2023/09/22 11:13:09;;;;;;;2.10;0.60;;;19.00;99.90;;;;;;5029406;28;20662;-70
2023/09/22 11:15:46;;;;;;;2.77;0.67;;;19.00;99.90;;;;;;5037317;28;20221;-71
2023/09/22 11:18:20;;;;;;;2.40;0.47;;;19.20;99.90;;;;;;5028579;28;20183;-70
2023/09/22 11:20:45;;;;;;;1.80;0.80;;;19.50;99.90;;;;;;5025531;28;20590;-69
2023/09/22 11:23:11;;;;;;;2.97;0.43;;;19.80;99.90;;;;;;5039985;28;20232;-70
2023/09/22 11:25:37;;;;;;;3.90;0.60;;;19.70;99.90;;;;;;5032852;28;20679;-70
2023/09/22 11:28:03;;;;;;;2.27;0.70;;;20.00;99.90;;;;;;5040584;28;20186;-70
2023/09/22 11:30:28;;;;;;;2.07;0.80;;;20.30;99.90;;;;;;5040844;28;20673;-70
2023/09/22 11:32:56;;;;;;;2.43;0.50;;;20.20;99.90;;;;;;5035710;28;20184;-70
2023/09/22 11:35:39;;;;;;;6.93;0.73;;;20.30;99.90;;;;;;5037288;28;20214;-70
2023/09/22 11:38:28;;;;;;;2.40;0.70;;;20.00;99.90;;;;;;5028571;28;20682;-70
2023/09/22 11:41:09;;;;;;;2.67;0.50;;;20.30;99.90;;;;;;5034061;28;20190;-70
2023/09/22 11:43:48;;;;;;;4.70;0.67;;;20.60;99.90;;;;;;5040434;28;20658;-71
2023/09/22 11:46:23;;;;;;;1.73;0.80;;;20.90;99.90;;;;;;5042308;28;20198;-70
2023/09/22 11:48:59;;;;;;;2.50;0.70;;;21.30;99.90;;;;;;5024606;28;20175;-70
2023/09/22 11:51:50;;;;;;;2.93;0.90;;;21.20;99.90;;;;;;5032472;28;20594;-70
2023/09/22 11:54:21;;;;;;;4.73;0.60;;;20.70;99.90;;;;;;5032773;28;20206;-70
2023/09/22 11:56:48;;;;;;;3.37;1.00;;;20.40;99.90;;;;;;5024856;28;20249;-70
2023/09/22 11:59:19;;;;;;;3.23;0.73;;;20.50;99.90;;;;;;5039523;28;20183;-71
2023/09/22 12:01:46;;;;;;;5.70;0.70;;;20.50;99.90;;;;;;5040301;28;20632;-70
2023/09/22 12:04:13;;;;;;;6.37;0.70;;;20.30;99.90;;;;;;5040396;28;20242;-71
2023/09/22 12:06:40;;;;;;;2.90;0.67;;;20.20;99.90;;;;;;5051455;28;20703;-71
2023/09/22 12:09:15;;;;;;;1.43;0.60;;;20.40;99.90;;;;;;5036759;28;20262;-69
2023/09/22 12:11:42;;;;;;;4.27;0.90;;;20.70;99.90;;;;;;5040308;28;20171;-70
2023/09/22 12:14:09;;;;;;;1.10;0.50;;;20.90;99.90;;;;;;5040549;28;20187;-70
2023/09/22 12:16:35;;;;;;;3.63;0.80;;;21.40;99.90;;;;;;5032014;28;20257;-70
2023/09/22 12:19:02;;;;;;;2.50;0.83;;;21.60;99.90;;;;;;5031382;28;20184;-69
2023/09/22 12:21:30;;;;;;;2.00;0.57;;;22.00;99.90;;;;;;5032585;28;20260;-69
2023/09/22 12:23:56;;;;;;;5.13;0.80;;;22.10;99.90;;;;;;5037586;28;20681;-69
2023/09/22 12:26:22;;;;;;;1.50;0.70;;;22.10;99.90;;;;;;5035236;28;20227;-70
2023/09/22 12:28:50;;;;;;;1.47;0.60;;;22.00;99.90;;;;;;5035284;28;20647;-70
2023/09/22 12:31:18;;;;;;;3.20;0.80;;;22.20;99.90;;;;;;5058702;28;20233;-69
2023/09/22 12:33:45;;;;;;;2.27;0.77;;;22.40;99.90;;;;;;5044231;28;20175;-69
2023/09/22 12:36:15;;;;;;;3.07;0.80;;;22.60;99.90;;;;;;5060018;28;20752;-70
2023/09/22 12:38:41;;;;;;;4.03;0.80;;;22.70;99.90;;;;;;5030931;28;20631;-69
2023/09/22 12:41:07;;;;;;;4.17;0.70;;;22.50;99.90;;;;;;5031886;28;20259;-69
2023/09/22 12:43:32;;;;;;;3.97;0.90;;;22.10;99.90;;;;;;5039819;28;20714;-71
2023/09/22 12:45:58;;;;;;;1.97;0.70;;;22.00;99.90;;;;;;5036623;28;20202;-69
2023/09/22 12:48:24;;;;;;;3.90;0.80;;;22.20;99.90;;;;;;5033242;28;20552;-70